sensor_id;sensor_type;location;lat;lon;timestamp;pressure;altitude;pressure_sealevel;temperature;humidity
66627;BME280;53498;50.422;14.912;2023-04-20T00:01:45;99268.69;;;3.67;100.00
66627;BME280;53498;50.422;14.912;2023-04-20T00:04:11;99267.50;;;3.57;100.00
66627;BME280;53498;50.422;14.912;2023-04-20T00:06:37;99266.59;;;3.55;100.00
66627;BME280;53498;50.422;14.912;2023-04-20T00:09:03;99272.06;;;3.66;100.00
66627;BME280;53498;50.422;14.912;2023-04-20T00:11:29;99269.63;;;3.42;100.00
66627;BME280;53498;50.422;14.912;2023-04-20T00:13:55;99266.16;;;3.41;100.00
66627;BME280;53498;50.422;14.912;2023-04-20T00:16:21;99266.75;;;3.33;100.00
66627;BME280;53498;50.422;14.912;2023-04-20T00:18:47;99265.09;;;3.35;100.00
66627;BME280;53498;50.422;14.912;2023-04-20T00:21:13;99253.25;;;3.40;100.00
66627;BME280;53498;50.422;14.912;2023-04-20T00:23:40;99254.00;;;3.36;100.00
66627;BME280;53498;50.422;14.912;2023-04-20T00:26:06;99260.81;;;3.35;100.00
66627;BME280;53498;50.422;14.912;2023-04-20T00:28:32;99255.59;;;3.32;100.00
66627;BME280;53498;50.422;14.912;2023-04-20T00:30:58;99260.81;;;3.35;100.00
66627;BME280;53498;50.422;14.912;2023-04-20T00:33:23;99252.13;;;3.32;100.00
66627;BME280;53498;50.422;14.912;2023-04-20T00:35:59;99252.19;;;3.33;100.00
66627;BME280;53498;50.422;14.912;2023-04-20T00:38:24;99255.06;;;3.42;100.00
66627;BME280;53498;50.422;14.912;2023-04-20T00:40:50;99255.97;;;3.44;100.00
66627;BME280;53498;50.422;14.912;2023-04-20T00:43:19;99252.50;;;3.42;100.00
66627;BME280;53498;50.422;14.912;2023-04-20T00:45:47;99257.44;;;3.36;100.00
66627;BME280;53498;50.422;14.912;2023-04-20T00:48:13;99252.09;;;3.30;100.00
66627;BME280;53498;50.422;14.912;2023-04-20T00:50:39;99252.00;;;3.27;100.00
66627;BME280;53498;50.422;14.912;2023-04-20T00:53:06;99248.50;;;3.25;100.00
66627;BME280;53498;50.422;14.912;2023-04-20T00:55:32;99258.84;;;3.27;100.00
66627;BME280;53498;50.422;14.912;2023-04-20T00:57:58;99252.09;;;3.30;100.00
66627;BME280;53498;50.422;14.912;2023-04-20T01:00:24;99243.16;;;3.19;100.00
66627;BME280;53498;50.422;14.912;2023-04-20T01:02:50;99246.75;;;3.24;100.00
66627;BME280;53498;50.422;14.912;2023-04-20T01:05:16;99244.72;;;3.14;100.00
66627;BME280;53498;50.422;14.912;2023-04-20T01:07:42;99245.44;;;3.10;100.00
66627;BME280;53498;50.422;14.912;2023-04-20T01:10:08;99248.19;;;3.16;100.00
66627;BME280;53498;50.422;14.912;2023-04-20T01:12:37;99248.28;;;3.19;100.00
66627;BME280;53498;50.422;14.912;2023-04-20T01:15:04;99252.44;;;3.14;100.00
66627;BME280;53498;50.422;14.912;2023-04-20T01:17:34;99248.19;;;3.16;100.00
66627;BME280;53498;50.422;14.912;2023-04-20T01:20:03;99249.66;;;3.08;100.00
66627;BME280;53498;50.422;14.912;2023-04-20T01:22:29;99247.22;;;3.12;100.00
66627;BME280;53498;50.422;14.912;2023-04-20T01:24:54;99241.22;;;3.12;100.00
66627;BME280;53498;50.422;14.912;2023-04-20T01:27:20;99237.88;;;3.14;100.00
66627;BME280;53498;50.422;14.912;2023-04-20T01:29:46;99235.88;;;3.06;100.00
66627;BME280;53498;50.422;14.912;2023-04-20T01:32:12;99234.84;;;3.00;100.00
66627;BME280;53498;50.422;14.912;2023-04-20T01:34:37;99225.25;;;2.95;100.00
66627;BME280;53498;50.422;14.912;2023-04-20T01:37:04;99229.00;;;3.05;100.00
66627;BME280;53498;50.422;14.912;2023-04-20T01:39:35;99223.47;;;2.92;100.00
66627;BME280;53498;50.422;14.912;2023-04-20T01:42:01;99228.41;;;2.86;100.00
66627;BME280;53498;50.422;14.912;2023-04-20T01:44:26;99227.25;;;2.78;100.00
66627;BME280;53498;50.422;14.912;2023-04-20T01:46:52;99228.75;;;2.71;100.00
66627;BME280;53498;50.422;14.912;2023-04-20T01:49:18;99225.84;;;2.61;100.00
66627;BME280;53498;50.422;14.912;2023-04-20T01:51:43;99225.84;;;2.61;100.00
66627;BME280;53498;50.422;14.912;2023-04-20T01:54:09;99224.88;;;2.57;100.00
66627;BME280;53498;50.422;14.912;2023-04-20T02:00:02;99211.75;;;2.49;100.00
66627;BME280;53498;50.422;14.912;2023-04-20T02:02:28;99218.88;;;2.58;100.00
66627;BME280;53498;50.422;14.912;2023-04-20T02:04:54;99210.00;;;2.48;100.00
66627;BME280;53498;50.422;14.912;2023-04-20T02:07:20;99216.97;;;2.52;100.00
66627;BME280;53498;50.422;14.912;2023-04-20T02:09:45;99215.34;;;2.54;100.00
66627;BME280;53498;50.422;14.912;2023-04-20T02:12:12;99218.94;;;2.60;100.00
66627;BME280;53498;50.422;14.912;2023-04-20T02:14:37;99221.22;;;2.76;100.00
66627;BME280;53498;50.422;14.912;2023-04-20T02:17:03;99215.97;;;2.73;100.00
66627;BME280;53498;50.422;14.912;2023-04-20T02:19:28;99218.16;;;2.62;100.00
66627;BME280;53498;50.422;14.912;2023-04-20T02:21:55;99209.19;;;2.75;100.00
66627;BME280;53498;50.422;14.912;2023-04-20T02:24:20;99215.88;;;2.70;100.00
66627;BME280;53498;50.422;14.912;2023-04-20T02:26:46;99218.44;;;2.70;100.00
66627;BME280;53498;50.422;14.912;2023-04-20T02:29:11;99218.38;;;2.68;100.00
66627;BME280;53498;50.422;14.912;2023-04-20T02:31:37;99222.28;;;2.57;100.00
66627;BME280;53498;50.422;14.912;2023-04-20T02:34:03;99225.63;;;2.54;100.00
66627;BME280;53498;50.422;14.912;2023-04-20T02:36:30;99223.75;;;2.50;100.00
66627;BME280;53498;50.422;14.912;2023-04-20T02:38:56;99234.13;;;2.53;100.00
66627;BME280;53498;50.422;14.912;2023-04-20T02:41:21;99229.59;;;2.46;100.00
66627;BME280;53498;50.422;14.912;2023-04-20T02:43:47;99223.97;;;2.57;100.00
66627;BME280;53498;50.422;14.912;2023-04-20T02:46:12;99222.88;;;2.50;100.00
66627;BME280;53498;50.422;14.912;2023-04-20T02:48:38;99225.66;;;2.56;100.00
66627;BME280;53498;50.422;14.912;2023-04-20T02:51:04;99225.94;;;2.64;100.00
66627;BME280;53498;50.422;14.912;2023-04-20T02:53:29;99229.19;;;2.60;100.00
66627;BME280;53498;50.422;14.912;2023-04-20T02:55:55;99230.09;;;2.60;100.00
66627;BME280;53498;50.422;14.912;2023-04-20T02:58:20;99224.69;;;2.52;100.00
66627;BME280;53498;50.422;14.912;2023-04-20T03:00:46;99232.72;;;2.62;100.00
66627;BME280;53498;50.422;14.912;2023-04-20T03:03:11;99229.31;;;2.63;100.00
66627;BME280;53498;50.422;14.912;2023-04-20T03:05:37;99225.94;;;2.64;100.00
66627;BME280;53498;50.422;14.912;2023-04-20T03:08:03;99227.47;;;2.59;100.00
66627;BME280;53498;50.422;14.912;2023-04-20T03:10:31;99223.41;;;2.65;100.00
66627;BME280;53498;50.422;14.912;2023-04-20T03:12:56;99229.31;;;2.63;100.00
66627;BME280;53498;50.422;14.912;2023-04-20T03:15:22;99227.59;;;2.63;100.00
66627;BME280;53498;50.422;14.912;2023-04-20T03:17:48;99228.19;;;2.54;100.00
66627;BME280;53498;50.422;14.912;2023-04-20T03:20:14;99224.78;;;2.55;100.00
66627;BME280;53498;50.422;14.912;2023-04-20T03:22:40;99231.66;;;2.57;100.00
66627;BME280;53498;50.422;14.912;2023-04-20T03:25:05;99227.56;;;2.62;100.00
66627;BME280;53498;50.422;14.912;2023-04-20T03:27:32;99225.97;;;2.40;100.00
66627;BME280;53498;50.422;14.912;2023-04-20T03:29:57;99233.81;;;2.44;100.00
66627;BME280;53498;50.422;14.912;2023-04-20T03:32:23;99226.72;;;2.37;100.00
66627;BME280;53498;50.422;14.912;2023-04-20T03:34:49;99233.13;;;2.48;100.00
66627;BME280;53498;50.422;14.912;2023-04-20T03:37:15;99228.19;;;2.54;100.00
66627;BME280;53498;50.422;14.912;2023-04-20T03:39:40;99228.44;;;2.38;100.00
66627;BME280;53498;50.422;14.912;2023-04-20T03:42:06;99229.06;;;2.31;100.00
66627;BME280;53498;50.422;14.912;2023-04-20T03:44:32;99225.59;;;2.29;100.00
66627;BME280;53498;50.422;14.912;2023-04-20T03:46:57;99224.13;;;2.36;100.00
66627;BME280;53498;50.422;14.912;2023-04-20T03:49:24;99226.50;;;2.31;100.00
66627;BME280;53498;50.422;14.912;2023-04-20T03:51:50;99227.94;;;2.23;100.00
66627;BME280;53498;50.422;14.912;2023-04-20T03:54:16;99217.00;;;2.28;100.00
66627;BME280;53498;50.422;14.912;2023-04-20T03:56:41;99218.66;;;2.26;100.00
66627;BME280;53498;50.422;14.912;2023-04-20T03:59:08;99216.34;;;2.34;100.00
66627;BME280;53498;50.422;14.912;2023-04-20T04:01:35;99215.03;;;2.45;100.00
66627;BME280;53498;50.422;14.912;2023-04-20T04:04:02;99223.16;;;2.58;100.00
66627;BME280;53498;50.422;14.912;2023-04-20T04:06:28;99224.91;;;2.59;100.00
66627;BME280;53498;50.422;14.912;2023-04-20T04:08:54;99220.91;;;2.67;100.00
66627;BME280;53498;50.422;14.912;2023-04-20T04:11:19;99215.66;;;2.64;100.00
66627;BME280;53498;50.422;14.912;2023-04-20T04:13:45;99224.06;;;2.60;100.00
66627;BME280;53498;50.422;14.912;2023-04-20T04:16:11;99226.84;;;2.66;99.12
66627;BME280;53498;50.422;14.912;2023-04-20T04:18:36;99221.78;;;2.67;98.31
66627;BME280;53498;50.422;14.912;2023-04-20T04:21:02;99224.84;;;2.83;99.15
66627;BME280;53498;50.422;14.912;2023-04-20T04:23:28;99237.91;;;2.89;99.37
66627;BME280;53498;50.422;14.912;2023-04-20T04:25:53;99238.56;;;2.83;100.00
66627;BME280;53498;50.422;14.912;2023-04-20T04:28:21;99233.75;;;2.67;100.00
66627;BME280;53498;50.422;14.912;2023-04-20T04:30:47;99231.28;;;2.70;100.00
66627;BME280;53498;50.422;14.912;2023-04-20T04:33:12;99225.84;;;2.61;100.00
66627;BME280;53498;50.422;14.912;2023-04-20T04:35:39;99218.44;;;2.70;100.00
66627;BME280;53498;50.422;14.912;2023-04-20T04:38:05;99218.66;;;2.76;100.00
66627;BME280;53498;50.422;14.912;2023-04-20T04:40:32;99218.03;;;2.83;100.00
66627;BME280;53498;50.422;14.912;2023-04-20T04:42:57;99225.72;;;2.83;100.00
66627;BME280;53498;50.422;14.912;2023-04-20T04:45:24;99230.97;;;2.86;100.00
66627;BME280;53498;50.422;14.912;2023-04-20T04:47:50;99229.50;;;2.94;97.98
66627;BME280;53498;50.422;14.912;2023-04-20T04:50:18;99230.53;;;2.99;96.55
66627;BME280;53498;50.422;14.912;2023-04-20T04:52:44;99228.13;;;3.04;97.11
66627;BME280;53498;50.422;14.912;2023-04-20T04:55:10;99229.31;;;3.14;97.53
66627;BME280;53498;50.422;14.912;2023-04-20T04:57:35;99221.63;;;3.15;97.89
66627;BME280;53498;50.422;14.912;2023-04-20T05:00:04;99233.94;;;2.98;97.11
66627;BME280;53498;50.422;14.912;2023-04-20T05:02:37;99234.81;;;2.73;98.47
66627;BME280;53498;50.422;14.912;2023-04-20T05:05:06;99234.97;;;2.78;96.48
66627;BME280;53498;50.422;14.912;2023-04-20T05:07:32;99240.16;;;2.80;95.94
66627;BME280;53498;50.422;14.912;2023-04-20T05:09:58;99247.88;;;2.80;96.88
66627;BME280;53498;50.422;14.912;2023-04-20T05:12:24;99243.81;;;2.86;96.01
66627;BME280;53498;50.422;14.912;2023-04-20T05:14:51;99250.91;;;2.93;95.65
66627;BME280;53498;50.422;14.912;2023-04-20T05:17:17;99245.66;;;2.90;95.92
66627;BME280;53498;50.422;14.912;2023-04-20T05:19:42;99237.75;;;2.84;97.09
66627;BME280;53498;50.422;14.912;2023-04-20T05:22:14;99244.31;;;3.01;97.39
66627;BME280;53498;50.422;14.912;2023-04-20T05:24:40;99247.25;;;2.87;97.28
66627;BME280;53498;50.422;14.912;2023-04-20T05:27:07;99246.38;;;2.86;98.47
66627;BME280;53498;50.422;14.912;2023-04-20T05:29:33;99246.91;;;3.01;97.48
66627;BME280;53498;50.422;14.912;2023-04-20T05:32:16;99251.50;;;3.12;97.01
66627;BME280;53498;50.422;14.912;2023-04-20T05:34:42;99262.81;;;2.91;96.46
66627;BME280;53498;50.422;14.912;2023-04-20T05:37:08;99262.44;;;3.06;97.59
66627;BME280;53498;50.422;14.912;2023-04-20T05:39:33;99266.94;;;3.12;95.64
66627;BME280;53498;50.422;14.912;2023-04-20T05:41:59;99270.16;;;3.06;95.85
66627;BME280;53498;50.422;14.912;2023-04-20T05:44:26;99275.59;;;3.15;95.78
66627;BME280;53498;50.422;14.912;2023-04-20T05:46:51;99274.41;;;3.31;93.85
66627;BME280;53498;50.422;14.912;2023-04-20T05:49:17;99284.47;;;3.25;94.96
66627;BME280;53498;50.422;14.912;2023-04-20T05:51:42;99279.78;;;3.12;94.07
66627;BME280;53498;50.422;14.912;2023-04-20T05:54:08;99283.06;;;3.08;94.36
66627;BME280;53498;50.422;14.912;2023-04-20T05:56:35;99269.72;;;2.92;96.01
66627;BME280;53498;50.422;14.912;2023-04-20T05:59:09;99266.50;;;2.99;97.66
66627;BME280;53498;50.422;14.912;2023-04-20T06:01:34;99270.03;;;3.01;98.33
66627;BME280;53498;50.422;14.912;2023-04-20T06:04:00;99275.16;;;3.01;98.61
66627;BME280;53498;50.422;14.912;2023-04-20T06:06:26;99271.88;;;3.06;99.72
66627;BME280;53498;50.422;14.912;2023-04-20T06:08:52;99274.50;;;3.07;99.32
66627;BME280;53498;50.422;14.912;2023-04-20T06:11:19;99269.16;;;3.28;98.75
66627;BME280;53498;50.422;14.912;2023-04-20T06:13:45;99262.97;;;3.48;98.36
66627;BME280;53498;50.422;14.912;2023-04-20T06:16:10;99267.91;;;3.42;96.98
66627;BME280;53498;50.422;14.912;2023-04-20T06:18:36;99264.50;;;3.43;96.27
66627;BME280;53498;50.422;14.912;2023-04-20T06:21:02;99268.88;;;3.46;95.65
66627;BME280;53498;50.422;14.912;2023-04-20T06:23:28;99264.81;;;3.53;96.56
66627;BME280;53498;50.422;14.912;2023-04-20T06:25:54;99269.75;;;3.74;96.68
66627;BME280;53498;50.422;14.912;2023-04-20T06:28:20;99269.94;;;3.80;95.64
66627;BME280;53498;50.422;14.912;2023-04-20T06:30:45;99264.34;;;3.94;94.71
66627;BME280;53498;50.422;14.912;2023-04-20T06:33:11;99262.66;;;3.95;93.25
66627;BME280;53498;50.422;14.912;2023-04-20T06:35:42;99276.16;;;3.88;94.29
66627;BME280;53498;50.422;14.912;2023-04-20T06:38:08;99274.41;;;3.87;94.89
66627;BME280;53498;50.422;14.912;2023-04-20T06:40:33;99282.63;;;4.04;95.47
66627;BME280;53498;50.422;14.912;2023-04-20T06:42:59;99285.50;;;3.84;94.80
66627;BME280;53498;50.422;14.912;2023-04-20T06:45:25;99278.03;;;3.93;97.64
66627;BME280;53498;50.422;14.912;2023-04-20T06:47:51;99275.88;;;4.07;96.72
66627;BME280;53498;50.422;14.912;2023-04-20T06:50:16;99273.47;;;4.13;97.96
66627;BME280;53498;50.422;14.912;2023-04-20T06:52:42;99277.91;;;3.89;97.36
66627;BME280;53498;50.422;14.912;2023-04-20T06:55:10;99272.53;;;3.81;100.00
66627;BME280;53498;50.422;14.912;2023-04-20T06:57:36;99268.78;;;3.99;100.00
66627;BME280;53498;50.422;14.912;2023-04-20T07:00:07;99269.22;;;3.85;100.00
66627;BME280;53498;50.422;14.912;2023-04-20T07:02:44;99262.13;;;3.78;100.00
66627;BME280;53498;50.422;14.912;2023-04-20T07:05:10;99259.75;;;3.84;100.00
66627;BME280;53498;50.422;14.912;2023-04-20T07:07:37;99261.09;;;3.71;100.00
66627;BME280;53498;50.422;14.912;2023-04-20T07:10:02;99258.69;;;3.78;100.00
66627;BME280;53498;50.422;14.912;2023-04-20T07:12:28;99257.59;;;3.69;100.00
66627;BME280;53498;50.422;14.912;2023-04-20T07:14:54;99262.63;;;3.66;100.00
66627;BME280;53498;50.422;14.912;2023-04-20T07:17:20;99254.59;;;3.84;100.00
66627;BME280;53498;50.422;14.912;2023-04-20T07:19:45;99250.47;;;3.89;100.00
66627;BME280;53498;50.422;14.912;2023-04-20T07:22:11;99265.25;;;3.95;100.00
66627;BME280;53498;50.422;14.912;2023-04-20T07:24:36;99267.25;;;4.05;100.00
66627;BME280;53498;50.422;14.912;2023-04-20T07:27:02;99265.88;;;4.18;100.00
66627;BME280;53498;50.422;14.912;2023-04-20T07:29:28;99252.50;;;4.30;100.00
66627;BME280;53498;50.422;14.912;2023-04-20T07:31:53;99257.50;;;4.25;100.00
66627;BME280;53498;50.422;14.912;2023-04-20T07:34:19;99265.53;;;4.06;100.00
66627;BME280;53498;50.422;14.912;2023-04-20T07:36:44;99275.91;;;4.09;100.00
66627;BME280;53498;50.422;14.912;2023-04-20T07:39:10;99268.41;;;4.16;100.00
66627;BME280;53498;50.422;14.912;2023-04-20T07:41:36;99258.59;;;4.33;100.00
66627;BME280;53498;50.422;14.912;2023-04-20T07:44:01;99263.06;;;4.39;100.00
66627;BME280;53498;50.422;14.912;2023-04-20T07:46:27;99266.03;;;4.54;100.00
66627;BME280;53498;50.422;14.912;2023-04-20T07:48:53;99268.69;;;4.57;100.00
66627;BME280;53498;50.422;14.912;2023-04-20T07:51:18;99280.16;;;4.37;100.00
66627;BME280;53498;50.422;14.912;2023-04-20T07:53:47;99267.03;;;4.59;100.00
66627;BME280;53498;50.422;14.912;2023-04-20T07:56:13;99267.44;;;4.75;100.00
66627;BME280;53498;50.422;14.912;2023-04-20T07:58:38;99268.53;;;4.51;100.00
66627;BME280;53498;50.422;14.912;2023-04-20T08:01:05;99272.50;;;4.72;100.00
66627;BME280;53498;50.422;14.912;2023-04-20T08:03:32;99269.09;;;4.73;100.00
66627;BME280;53498;50.422;14.912;2023-04-20T08:06:02;99270.69;;;4.68;100.00
66627;BME280;53498;50.422;14.912;2023-04-20T08:08:28;99268.47;;;4.81;100.00
66627;BME280;53498;50.422;14.912;2023-04-20T08:10:57;99284.41;;;5.00;100.00
66627;BME280;53498;50.422;14.912;2023-04-20T08:13:25;99274.56;;;4.85;100.00
66627;BME280;53498;50.422;14.912;2023-04-20T08:15:52;99268.75;;;4.60;100.00
66627;BME280;53498;50.422;14.912;2023-04-20T08:18:17;99271.03;;;4.80;100.00
66627;BME280;53498;50.422;14.912;2023-04-20T08:20:43;99267.78;;;4.88;100.00
66627;BME280;53498;50.422;14.912;2023-04-20T08:23:10;99260.97;;;4.89;100.00
66627;BME280;53498;50.422;14.912;2023-04-20T08:25:39;99252.47;;;4.95;100.00
66627;BME280;53498;50.422;14.912;2023-04-20T08:28:05;99249.81;;;5.26;100.00
66627;BME280;53498;50.422;14.912;2023-04-20T08:30:31;99252.63;;;5.36;100.00
66627;BME280;53498;50.422;14.912;2023-04-20T08:32:57;99247.31;;;5.29;100.00
66627;BME280;53498;50.422;14.912;2023-04-20T08:35:23;99243.94;;;5.70;100.00
66627;BME280;53498;50.422;14.912;2023-04-20T08:37:49;99250.44;;;5.92;100.00
66627;BME280;53498;50.422;14.912;2023-04-20T08:40:16;99244.88;;;5.73;100.00
66627;BME280;53498;50.422;14.912;2023-04-20T08:42:42;99239.84;;;5.78;100.00
66627;BME280;53498;50.422;14.912;2023-04-20T08:45:07;99228.47;;;6.09;100.00
66627;BME280;53498;50.422;14.912;2023-04-20T08:47:34;99234.88;;;6.28;100.00
66627;BME280;53498;50.422;14.912;2023-04-20T08:50:02;99220.38;;;6.35;100.00
66627;BME280;53498;50.422;14.912;2023-04-20T08:52:28;99223.94;;;6.41;100.00
66627;BME280;53498;50.422;14.912;2023-04-20T08:54:54;99228.75;;;6.68;99.95
66627;BME280;53498;50.422;14.912;2023-04-20T08:57:19;99232.38;;;6.80;100.00
66627;BME280;53498;50.422;14.912;2023-04-20T08:59:45;99229.09;;;6.88;100.00
66627;BME280;53498;50.422;14.912;2023-04-20T09:02:12;99241.34;;;6.99;99.34
66627;BME280;53498;50.422;14.912;2023-04-20T09:04:39;99244.22;;;7.17;98.11
66627;BME280;53498;50.422;14.912;2023-04-20T09:07:06;99238.44;;;7.30;98.85
66627;BME280;53498;50.422;14.912;2023-04-20T09:09:32;99231.16;;;7.08;99.51
66627;BME280;53498;50.422;14.912;2023-04-20T09:12:02;99236.56;;;7.23;98.25
66627;BME280;53498;50.422;14.912;2023-04-20T09:14:29;99232.31;;;7.27;99.07
66627;BME280;53498;50.422;14.912;2023-04-20T09:16:57;99233.31;;;7.33;100.00
66627;BME280;53498;50.422;14.912;2023-04-20T09:19:30;99228.19;;;7.38;100.00
66627;BME280;53498;50.422;14.912;2023-04-20T09:21:59;99226.13;;;7.15;100.00
66627;BME280;53498;50.422;14.912;2023-04-20T09:24:34;99225.16;;;7.09;100.00
66627;BME280;53498;50.422;14.912;2023-04-20T09:27:01;99220.91;;;7.72;100.00
66627;BME280;53498;50.422;14.912;2023-04-20T09:29:27;99222.75;;;7.79;100.00
66627;BME280;53498;50.422;14.912;2023-04-20T09:31:54;99216.97;;;8.01;100.00
66627;BME280;53498;50.422;14.912;2023-04-20T09:34:22;99220.13;;;8.44;96.57
66627;BME280;53498;50.422;14.912;2023-04-20T09:36:50;99216.72;;;8.50;93.74
66627;BME280;53498;50.422;14.912;2023-04-20T09:39:20;99215.75;;;8.40;94.61
66627;BME280;53498;50.422;14.912;2023-04-20T09:41:47;99207.88;;;8.35;95.82
66627;BME280;53498;50.422;14.912;2023-04-20T09:44:15;99214.09;;;8.48;100.00
66627;BME280;53498;50.422;14.912;2023-04-20T09:46:42;99204.59;;;8.49;97.66
66627;BME280;53498;50.422;14.912;2023-04-20T09:49:10;99203.03;;;8.63;99.25
66627;BME280;53498;50.422;14.912;2023-04-20T09:51:38;99208.03;;;8.45;96.05
66627;BME280;53498;50.422;14.912;2023-04-20T09:54:06;99206.63;;;8.79;96.36
66627;BME280;53498;50.422;14.912;2023-04-20T09:56:33;99207.66;;;8.95;97.29
66627;BME280;53498;50.422;14.912;2023-04-20T09:59:00;99201.75;;;9.13;97.51
66627;BME280;53498;50.422;14.912;2023-04-20T10:01:29;99203.56;;;9.26;97.14
66627;BME280;53498;50.422;14.912;2023-04-20T10:03:56;99201.91;;;9.34;99.02
66627;BME280;53498;50.422;14.912;2023-04-20T10:06:30;99194.38;;;9.80;95.58
66627;BME280;53498;50.422;14.912;2023-04-20T10:08:57;99190.91;;;9.80;92.69
66627;BME280;53498;50.422;14.912;2023-04-20T10:13:53;99181.47;;;9.97;93.23
66627;BME280;53498;50.422;14.912;2023-04-20T10:16:19;99190.97;;;9.92;90.77
66627;BME280;53498;50.422;14.912;2023-04-20T10:19:06;99184.09;;;10.00;91.77
66627;BME280;53498;50.422;14.912;2023-04-20T10:21:32;99180.63;;;10.06;92.79
66627;BME280;53498;50.422;14.912;2023-04-20T10:24:08;99184.31;;;10.63;91.66
66627;BME280;53498;50.422;14.912;2023-04-20T10:26:36;99178.19;;;10.49;94.42
66627;BME280;53498;50.422;14.912;2023-04-20T10:29:02;99173.88;;;10.68;87.93
66627;BME280;53498;50.422;14.912;2023-04-20T10:31:38;99174.78;;;11.17;93.13
66627;BME280;53498;50.422;14.912;2023-04-20T10:34:04;99167.84;;;11.25;86.94
66627;BME280;53498;50.422;14.912;2023-04-20T10:36:31;99166.94;;;11.48;87.28
66627;BME280;53498;50.422;14.912;2023-04-20T10:38:59;99161.75;;;11.32;87.85
66627;BME280;53498;50.422;14.912;2023-04-20T10:41:29;99163.44;;;11.43;87.72
66627;BME280;53498;50.422;14.912;2023-04-20T10:44:08;99160.84;;;11.37;84.92
66627;BME280;53498;50.422;14.912;2023-04-20T10:46:34;99153.97;;;11.13;86.45
66627;BME280;53498;50.422;14.912;2023-04-20T10:49:00;99157.41;;;11.25;86.10
66627;BME280;53498;50.422;14.912;2023-04-20T10:51:27;99149.53;;;11.50;86.85
66627;BME280;53498;50.422;14.912;2023-04-20T10:54:03;99145.16;;;11.64;86.44
66627;BME280;53498;50.422;14.912;2023-04-20T10:59:09;99138.28;;;11.45;87.65
66627;BME280;53498;50.422;14.912;2023-04-20T11:01:35;99144.41;;;11.28;85.65
66627;BME280;53498;50.422;14.912;2023-04-20T11:04:01;99140.91;;;11.26;86.92
66627;BME280;53498;50.422;14.912;2023-04-20T11:06:27;99126.94;;;11.63;83.62
66627;BME280;53498;50.422;14.912;2023-04-20T11:08:53;99125.97;;;11.97;83.92
66627;BME280;53498;50.422;14.912;2023-04-20T11:11:20;99122.50;;;11.83;79.74
66627;BME280;53498;50.422;14.912;2023-04-20T11:13:46;99124.97;;;12.20;81.41
66627;BME280;53498;50.422;14.912;2023-04-20T11:16:14;99115.53;;;11.99;81.28
66627;BME280;53498;50.422;14.912;2023-04-20T11:18:51;99114.69;;;11.89;78.75
66627;BME280;53498;50.422;14.912;2023-04-20T11:21:18;99128.66;;;11.67;79.80
66627;BME280;53498;50.422;14.912;2023-04-20T11:23:45;99115.59;;;11.85;80.05
66627;BME280;53498;50.422;14.912;2023-04-20T11:26:11;99110.06;;;12.39;77.84
66627;BME280;53498;50.422;14.912;2023-04-20T11:28:36;99106.41;;;12.64;76.22
66627;BME280;53498;50.422;14.912;2023-04-20T11:31:02;99112.44;;;12.71;74.71
66627;BME280;53498;50.422;14.912;2023-04-20T11:33:29;99109.81;;;12.76;75.58
66627;BME280;53498;50.422;14.912;2023-04-20T11:35:56;99118.19;;;13.11;73.79
66627;BME280;53498;50.422;14.912;2023-04-20T11:38:31;99096.81;;;12.69;75.56
66627;BME280;53498;50.422;14.912;2023-04-20T11:40:56;99102.91;;;12.65;75.16
66627;BME280;53498;50.422;14.912;2023-04-20T11:43:24;99105.47;;;12.71;73.69
66627;BME280;53498;50.422;14.912;2023-04-20T11:45:50;99098.47;;;12.77;74.88
66627;BME280;53498;50.422;14.912;2023-04-20T11:48:16;99100.44;;;12.48;74.03
66627;BME280;53498;50.422;14.912;2023-04-20T11:50:43;99091.03;;;12.29;76.01
66627;BME280;53498;50.422;14.912;2023-04-20T11:53:09;99087.41;;;12.47;74.64
66627;BME280;53498;50.422;14.912;2023-04-20T11:55:38;99092.44;;;12.71;73.20
66627;BME280;53498;50.422;14.912;2023-04-20T11:58:04;99074.75;;;13.04;72.60
66627;BME280;53498;50.422;14.912;2023-04-20T12:00:29;99087.06;;;12.90;73.36
66627;BME280;53498;50.422;14.912;2023-04-20T12:02:55;99072.16;;;13.01;72.39
66627;BME280;53498;50.422;14.912;2023-04-20T12:05:21;99077.22;;;13.15;73.96
66627;BME280;53498;50.422;14.912;2023-04-20T12:07:47;99085.97;;;13.14;71.24
66627;BME280;53498;50.422;14.912;2023-04-20T12:10:12;99078.25;;;13.00;74.13
66627;BME280;53498;50.422;14.912;2023-04-20T12:12:38;99078.28;;;12.97;71.96
66627;BME280;53498;50.422;14.912;2023-04-20T12:15:06;99077.28;;;13.09;72.07
66627;BME280;53498;50.422;14.912;2023-04-20T12:17:32;99070.28;;;13.12;71.82
66627;BME280;53498;50.422;14.912;2023-04-20T12:19:58;99095.53;;;13.12;70.25
66627;BME280;53498;50.422;14.912;2023-04-20T12:22:23;99075.47;;;13.15;70.76
66627;BME280;53498;50.422;14.912;2023-04-20T12:24:49;99068.97;;;13.56;70.63
66627;BME280;53498;50.422;14.912;2023-04-20T12:27:15;99077.91;;;13.37;68.70
66627;BME280;53498;50.422;14.912;2023-04-20T12:29:41;99069.44;;;13.12;70.48
66627;BME280;53498;50.422;14.912;2023-04-20T12:32:06;99069.88;;;13.52;69.28
66627;BME280;53498;50.422;14.912;2023-04-20T12:34:32;99058.28;;;13.75;68.88
66627;BME280;53498;50.422;14.912;2023-04-20T12:36:57;99061.47;;;13.98;67.80
66627;BME280;53498;50.422;14.912;2023-04-20T12:39:23;99064.81;;;14.08;66.65
66627;BME280;53498;50.422;14.912;2023-04-20T12:41:49;99055.97;;;14.17;66.28
66627;BME280;53498;50.422;14.912;2023-04-20T12:44:14;99055.03;;;14.19;65.81
66627;BME280;53498;50.422;14.912;2023-04-20T12:46:40;99045.25;;;14.32;65.25
66627;BME280;53498;50.422;14.912;2023-04-20T12:49:06;99051.03;;;14.54;63.70
66627;BME280;53498;50.422;14.912;2023-04-20T12:51:32;99051.47;;;14.26;64.54
66627;BME280;53498;50.422;14.912;2023-04-20T12:53:57;99035.78;;;14.25;65.03
66627;BME280;53498;50.422;14.912;2023-04-20T12:56:23;99042.53;;;14.40;62.88
66627;BME280;53498;50.422;14.912;2023-04-20T12:58:48;99038.25;;;14.34;63.17